Highland, Minnesota
Current Conditions -  °F | °C
As of 8:55 AM on Thursday 23 Oct 2014 (Local Time) from KFKA Reporting Station
Moderate Rain Moderate Rain  
Wind Chill:   Ceiling: 500
Heat Index:   Visibility: 2mi
Dew Point:   Wind: 10mph
Humidity: 95%   Direction: 180°S
Pressure: 30.04"   Gusts: NA
Location:  43.7165°N, 91.9871°W
Report Text: KFKA 231355Z AUTO 18009KT 2SM RA OVC005 08/07 A3004 RMK AO2 P0006 T00800072
Loading
Personal Weather Stations






























Interactive Weather Map
Tropical Storm Tracking
New forecast layout! Learn more

10-Day Weather Forecast

Advertisements
Track Severe Weather on mobile